sensor_id;sensor_type;location;lat;lon;timestamp;P1;durP1;ratioP1;P2;durP2;ratioP2
24086;SDS011;22893;50.572;7.234;2023-03-01T00:01:38;9.08;;;4.87;;
24086;SDS011;22893;50.572;7.234;2023-03-01T00:04:06;8.35;;;4.33;;
24086;SDS011;22893;50.572;7.234;2023-03-01T00:06:34;6.83;;;4.20;;
24086;SDS011;22893;50.572;7.234;2023-03-01T00:09:02;5.78;;;3.90;;
24086;SDS011;22893;50.572;7.234;2023-03-01T00:11:30;8.00;;;4.58;;
24086;SDS011;22893;50.572;7.234;2023-03-01T00:14:00;7.90;;;3.87;;
24086;SDS011;22893;50.572;7.234;2023-03-01T00:16:31;7.60;;;4.33;;
24086;SDS011;22893;50.572;7.234;2023-03-01T00:19:07;7.37;;;5.05;;
24086;SDS011;22893;50.572;7.234;2023-03-01T00:21:45;7.05;;;4.12;;
24086;SDS011;22893;50.572;7.234;2023-03-01T00:24:13;7.60;;;3.87;;
24086;SDS011;22893;50.572;7.234;2023-03-01T00:26:41;7.47;;;4.05;;
24086;SDS011;22893;50.572;7.234;2023-03-01T00:29:08;7.65;;;4.08;;
24086;SDS011;22893;50.572;7.234;2023-03-01T00:31:36;7.28;;;3.52;;
24086;SDS011;22893;50.572;7.234;2023-03-01T00:34:04;4.40;;;3.52;;
24086;SDS011;22893;50.572;7.234;2023-03-01T00:36:33;6.55;;;3.70;;
24086;SDS011;22893;50.572;7.234;2023-03-01T00:39:03;6.50;;;4.00;;
24086;SDS011;22893;50.572;7.234;2023-03-01T00:41:33;6.15;;;3.42;;
24086;SDS011;22893;50.572;7.234;2023-03-01T00:44:00;7.42;;;4.55;;
24086;SDS011;22893;50.572;7.234;2023-03-01T00:46:28;6.37;;;3.62;;
24086;SDS011;22893;50.572;7.234;2023-03-01T00:48:59;5.58;;;3.47;;
24086;SDS011;22893;50.572;7.234;2023-03-01T00:51:28;6.97;;;4.03;;
24086;SDS011;22893;50.572;7.234;2023-03-01T00:53:57;7.83;;;4.03;;
24086;SDS011;22893;50.572;7.234;2023-03-01T00:56:28;6.75;;;3.33;;
24086;SDS011;22893;50.572;7.234;2023-03-01T00:58:56;5.58;;;3.45;;
24086;SDS011;22893;50.572;7.234;2023-03-01T01:01:25;6.33;;;3.60;;
24086;SDS011;22893;50.572;7.234;2023-03-01T01:03:58;8.68;;;3.52;;
24086;SDS011;22893;50.572;7.234;2023-03-01T01:06:31;6.17;;;3.17;;
24086;SDS011;22893;50.572;7.234;2023-03-01T01:09:01;6.33;;;3.35;;
24086;SDS011;22893;50.572;7.234;2023-03-01T01:11:30;5.75;;;3.27;;
24086;SDS011;22893;50.572;7.234;2023-03-01T01:13:58;5.80;;;3.15;;
24086;SDS011;22893;50.572;7.234;2023-03-01T01:16:27;5.80;;;3.37;;
24086;SDS011;22893;50.572;7.234;2023-03-01T01:18:55;6.17;;;3.20;;
24086;SDS011;22893;50.572;7.234;2023-03-01T01:21:24;6.12;;;3.62;;
24086;SDS011;22893;50.572;7.234;2023-03-01T01:23:53;6.65;;;3.33;;
24086;SDS011;22893;50.572;7.234;2023-03-01T01:26:25;5.35;;;2.90;;
24086;SDS011;22893;50.572;7.234;2023-03-01T01:28:57;6.90;;;3.05;;
24086;SDS011;22893;50.572;7.234;2023-03-01T01:31:25;8.45;;;3.27;;
24086;SDS011;22893;50.572;7.234;2023-03-01T01:33:54;5.58;;;3.62;;
24086;SDS011;22893;50.572;7.234;2023-03-01T01:36:23;3.98;;;2.58;;
24086;SDS011;22893;50.572;7.234;2023-03-01T01:38:50;5.75;;;3.02;;
24086;SDS011;22893;50.572;7.234;2023-03-01T01:41:18;4.58;;;2.90;;
24086;SDS011;22893;50.572;7.234;2023-03-01T01:44:09;6.17;;;3.37;;
24086;SDS011;22893;50.572;7.234;2023-03-01T01:49:00;5.08;;;2.85;;
24086;SDS011;22893;50.572;7.234;2023-03-01T01:51:31;5.33;;;2.50;;
24086;SDS011;22893;50.572;7.234;2023-03-01T01:54:14;4.42;;;2.62;;
24086;SDS011;22893;50.572;7.234;2023-03-01T01:56:47;4.37;;;2.77;;
24086;SDS011;22893;50.572;7.234;2023-03-01T01:59:16;6.45;;;2.90;;
24086;SDS011;22893;50.572;7.234;2023-03-01T02:01:44;6.17;;;3.45;;
24086;SDS011;22893;50.572;7.234;2023-03-01T02:04:11;6.20;;;3.15;;
24086;SDS011;22893;50.572;7.234;2023-03-01T02:06:45;5.80;;;3.40;;
24086;SDS011;22893;50.572;7.234;2023-03-01T02:09:12;4.15;;;2.60;;
24086;SDS011;22893;50.572;7.234;2023-03-01T02:11:42;6.85;;;3.20;;
24086;SDS011;22893;50.572;7.234;2023-03-01T02:14:10;5.75;;;2.70;;
24086;SDS011;22893;50.572;7.234;2023-03-01T02:16:38;5.05;;;2.55;;
24086;SDS011;22893;50.572;7.234;2023-03-01T02:19:07;5.80;;;2.75;;
24086;SDS011;22893;50.572;7.234;2023-03-01T02:21:50;4.12;;;2.75;;
24086;SDS011;22893;50.572;7.234;2023-03-01T02:24:29;5.80;;;3.30;;
24086;SDS011;22893;50.572;7.234;2023-03-01T02:27:00;5.53;;;2.80;;
24086;SDS011;22893;50.572;7.234;2023-03-01T02:29:28;5.97;;;2.85;;
24086;SDS011;22893;50.572;7.234;2023-03-01T02:31:56;7.90;;;2.98;;
24086;SDS011;22893;50.572;7.234;2023-03-01T02:34:27;6.20;;;2.65;;
24086;SDS011;22893;50.572;7.234;2023-03-01T02:36:57;6.42;;;2.77;;
24086;SDS011;22893;50.572;7.234;2023-03-01T02:39:37;4.15;;;2.60;;
24086;SDS011;22893;50.572;7.234;2023-03-01T02:42:09;5.08;;;2.98;;
24086;SDS011;22893;50.572;7.234;2023-03-01T02:44:38;4.42;;;2.42;;
24086;SDS011;22893;50.572;7.234;2023-03-01T02:47:05;5.80;;;3.02;;
24086;SDS011;22893;50.572;7.234;2023-03-01T02:49:34;4.70;;;2.62;;
24086;SDS011;22893;50.572;7.234;2023-03-01T02:57:22;4.37;;;2.62;;
24086;SDS011;22893;50.572;7.234;2023-03-01T02:59:53;4.17;;;2.55;;
24086;SDS011;22893;50.572;7.234;2023-03-01T03:02:24;3.87;;;2.45;;
24086;SDS011;22893;50.572;7.234;2023-03-01T03:05:07;4.22;;;2.87;;
24086;SDS011;22893;50.572;7.234;2023-03-01T03:07:42;4.92;;;2.83;;
24086;SDS011;22893;50.572;7.234;2023-03-01T03:10:13;3.80;;;2.42;;
24086;SDS011;22893;50.572;7.234;2023-03-01T03:12:42;5.25;;;2.60;;
24086;SDS011;22893;50.572;7.234;2023-03-01T03:15:09;4.33;;;2.62;;
24086;SDS011;22893;50.572;7.234;2023-03-01T03:17:39;4.75;;;2.40;;
24086;SDS011;22893;50.572;7.234;2023-03-01T03:20:09;4.83;;;2.52;;
24086;SDS011;22893;50.572;7.234;2023-03-01T03:22:39;4.00;;;2.17;;
24086;SDS011;22893;50.572;7.234;2023-03-01T03:25:07;6.22;;;2.62;;
24086;SDS011;22893;50.572;7.234;2023-03-01T03:27:38;4.30;;;1.95;;
24086;SDS011;22893;50.572;7.234;2023-03-01T03:30:08;4.08;;;2.25;;
24086;SDS011;22893;50.572;7.234;2023-03-01T03:32:38;3.42;;;2.20;;
24086;SDS011;22893;50.572;7.234;2023-03-01T03:35:08;4.15;;;2.40;;
24086;SDS011;22893;50.572;7.234;2023-03-01T03:37:37;5.40;;;2.15;;
24086;SDS011;22893;50.572;7.234;2023-03-01T03:40:24;4.17;;;2.42;;
24086;SDS011;22893;50.572;7.234;2023-03-01T03:42:52;4.78;;;2.22;;
24086;SDS011;22893;50.572;7.234;2023-03-01T03:45:19;4.78;;;2.35;;
24086;SDS011;22893;50.572;7.234;2023-03-01T03:47:47;5.30;;;2.50;;
24086;SDS011;22893;50.572;7.234;2023-03-01T03:50:15;4.75;;;2.80;;
24086;SDS011;22893;50.572;7.234;2023-03-01T03:52:43;4.00;;;2.02;;
24086;SDS011;22893;50.572;7.234;2023-03-01T03:55:11;3.55;;;2.40;;
24086;SDS011;22893;50.572;7.234;2023-03-01T03:57:40;2.87;;;1.95;;
24086;SDS011;22893;50.572;7.234;2023-03-01T04:00:11;4.25;;;2.60;;
24086;SDS011;22893;50.572;7.234;2023-03-01T04:02:40;4.05;;;1.95;;
24086;SDS011;22893;50.572;7.234;2023-03-01T04:05:09;4.05;;;2.00;;
24086;SDS011;22893;50.572;7.234;2023-03-01T04:07:38;2.35;;;1.50;;
24086;SDS011;22893;50.572;7.234;2023-03-01T04:10:08;5.40;;;2.37;;
24086;SDS011;22893;50.572;7.234;2023-03-01T04:12:39;4.45;;;2.22;;
24086;SDS011;22893;50.572;7.234;2023-03-01T04:15:09;5.35;;;2.02;;
24086;SDS011;22893;50.572;7.234;2023-03-01T04:17:40;3.05;;;1.87;;
24086;SDS011;22893;50.572;7.234;2023-03-01T04:20:09;3.67;;;2.15;;
24086;SDS011;22893;50.572;7.234;2023-03-01T04:22:38;4.05;;;2.33;;
24086;SDS011;22893;50.572;7.234;2023-03-01T04:25:07;2.90;;;1.95;;
24086;SDS011;22893;50.572;7.234;2023-03-01T04:27:35;5.47;;;2.45;;
24086;SDS011;22893;50.572;7.234;2023-03-01T04:30:03;4.78;;;1.98;;
24086;SDS011;22893;50.572;7.234;2023-03-01T04:32:31;6.00;;;2.50;;
24086;SDS011;22893;50.572;7.234;2023-03-01T04:34:58;2.65;;;2.00;;
24086;SDS011;22893;50.572;7.234;2023-03-01T04:37:26;3.98;;;1.98;;
24086;SDS011;22893;50.572;7.234;2023-03-01T04:39:55;4.95;;;2.12;;
24086;SDS011;22893;50.572;7.234;2023-03-01T04:42:23;2.37;;;2.15;;
24086;SDS011;22893;50.572;7.234;2023-03-01T04:44:50;4.20;;;2.08;;
24086;SDS011;22893;50.572;7.234;2023-03-01T04:47:18;3.85;;;2.67;;
24086;SDS011;22893;50.572;7.234;2023-03-01T04:49:45;3.95;;;2.08;;
24086;SDS011;22893;50.572;7.234;2023-03-01T04:52:13;4.05;;;1.92;;
24086;SDS011;22893;50.572;7.234;2023-03-01T04:54:40;3.75;;;2.02;;
24086;SDS011;22893;50.572;7.234;2023-03-01T04:57:08;9.60;;;4.37;;
24086;SDS011;22893;50.572;7.234;2023-03-01T04:59:36;7.47;;;2.95;;
24086;SDS011;22893;50.572;7.234;2023-03-01T05:02:03;6.60;;;2.65;;
24086;SDS011;22893;50.572;7.234;2023-03-01T05:04:31;6.97;;;3.50;;
24086;SDS011;22893;50.572;7.234;2023-03-01T05:06:58;5.85;;;3.12;;
24086;SDS011;22893;50.572;7.234;2023-03-01T05:09:26;11.45;;;3.60;;
24086;SDS011;22893;50.572;7.234;2023-03-01T05:11:53;5.67;;;2.20;;
24086;SDS011;22893;50.572;7.234;2023-03-01T05:17:08;3.75;;;2.05;;
24086;SDS011;22893;50.572;7.234;2023-03-01T05:19:35;6.00;;;2.35;;
24086;SDS011;22893;50.572;7.234;2023-03-01T05:22:03;6.00;;;2.37;;
24086;SDS011;22893;50.572;7.234;2023-03-01T05:24:31;4.62;;;2.22;;
24086;SDS011;22893;50.572;7.234;2023-03-01T05:27:01;4.33;;;2.20;;
24086;SDS011;22893;50.572;7.234;2023-03-01T05:29:30;6.85;;;2.50;;
24086;SDS011;22893;50.572;7.234;2023-03-01T05:32:00;4.05;;;2.30;;
24086;SDS011;22893;50.572;7.234;2023-03-01T05:34:29;5.33;;;2.55;;
24086;SDS011;22893;50.572;7.234;2023-03-01T05:37:03;4.17;;;1.90;;
24086;SDS011;22893;50.572;7.234;2023-03-01T05:39:32;6.97;;;2.25;;
24086;SDS011;22893;50.572;7.234;2023-03-01T05:42:00;4.90;;;2.52;;
24086;SDS011;22893;50.572;7.234;2023-03-01T05:44:28;7.08;;;2.40;;
24086;SDS011;22893;50.572;7.234;2023-03-01T05:46:56;3.83;;;2.60;;
24086;SDS011;22893;50.572;7.234;2023-03-01T05:49:24;5.45;;;2.10;;
24086;SDS011;22893;50.572;7.234;2023-03-01T05:51:52;3.55;;;2.40;;
24086;SDS011;22893;50.572;7.234;2023-03-01T05:54:20;7.78;;;3.00;;
24086;SDS011;22893;50.572;7.234;2023-03-01T05:56:48;3.72;;;2.17;;
24086;SDS011;22893;50.572;7.234;2023-03-01T05:59:16;16.40;;;3.47;;
24086;SDS011;22893;50.572;7.234;2023-03-01T06:01:43;6.33;;;2.37;;
24086;SDS011;22893;50.572;7.234;2023-03-01T06:04:11;5.87;;;2.67;;
24086;SDS011;22893;50.572;7.234;2023-03-01T06:06:38;6.70;;;2.55;;
24086;SDS011;22893;50.572;7.234;2023-03-01T06:09:06;4.00;;;2.30;;
24086;SDS011;22893;50.572;7.234;2023-03-01T06:11:35;5.08;;;3.00;;
24086;SDS011;22893;50.572;7.234;2023-03-01T06:14:04;5.00;;;2.90;;
24086;SDS011;22893;50.572;7.234;2023-03-01T06:16:33;9.33;;;2.85;;
24086;SDS011;22893;50.572;7.234;2023-03-01T06:19:01;6.70;;;2.52;;
24086;SDS011;22893;50.572;7.234;2023-03-01T06:21:28;5.35;;;2.83;;
24086;SDS011;22893;50.572;7.234;2023-03-01T06:23:56;4.92;;;2.87;;
24086;SDS011;22893;50.572;7.234;2023-03-01T06:26:24;7.35;;;2.65;;
24086;SDS011;22893;50.572;7.234;2023-03-01T06:28:51;6.05;;;3.00;;
24086;SDS011;22893;50.572;7.234;2023-03-01T06:31:19;4.00;;;2.12;;
24086;SDS011;22893;50.572;7.234;2023-03-01T06:33:46;4.55;;;2.58;;
24086;SDS011;22893;50.572;7.234;2023-03-01T06:36:14;5.17;;;2.60;;
24086;SDS011;22893;50.572;7.234;2023-03-01T06:38:43;4.37;;;2.20;;
24086;SDS011;22893;50.572;7.234;2023-03-01T06:41:10;6.90;;;3.00;;
24086;SDS011;22893;50.572;7.234;2023-03-01T06:43:38;4.97;;;2.42;;
24086;SDS011;22893;50.572;7.234;2023-03-01T06:46:06;5.08;;;2.50;;
24086;SDS011;22893;50.572;7.234;2023-03-01T06:48:33;5.15;;;2.62;;
24086;SDS011;22893;50.572;7.234;2023-03-01T06:51:01;7.10;;;2.50;;
24086;SDS011;22893;50.572;7.234;2023-03-01T06:53:29;5.62;;;2.60;;
24086;SDS011;22893;50.572;7.234;2023-03-01T06:55:56;5.72;;;2.00;;
24086;SDS011;22893;50.572;7.234;2023-03-01T06:58:26;4.65;;;2.37;;
24086;SDS011;22893;50.572;7.234;2023-03-01T07:00:53;5.58;;;2.60;;
24086;SDS011;22893;50.572;7.234;2023-03-01T07:03:21;4.75;;;2.45;;
24086;SDS011;22893;50.572;7.234;2023-03-01T07:05:49;4.15;;;2.12;;
24086;SDS011;22893;50.572;7.234;2023-03-01T07:08:20;7.08;;;2.98;;
24086;SDS011;22893;50.572;7.234;2023-03-01T07:10:47;5.25;;;3.25;;
24086;SDS011;22893;50.572;7.234;2023-03-01T07:13:15;8.35;;;2.37;;
24086;SDS011;22893;50.572;7.234;2023-03-01T07:15:42;6.42;;;2.30;;
24086;SDS011;22893;50.572;7.234;2023-03-01T07:18:10;4.40;;;2.40;;
24086;SDS011;22893;50.572;7.234;2023-03-01T07:20:37;4.50;;;2.90;;
24086;SDS011;22893;50.572;7.234;2023-03-01T07:23:05;4.40;;;2.70;;
24086;SDS011;22893;50.572;7.234;2023-03-01T07:25:33;3.58;;;2.42;;
24086;SDS011;22893;50.572;7.234;2023-03-01T07:28:01;3.90;;;2.35;;
24086;SDS011;22893;50.572;7.234;2023-03-01T07:30:28;5.60;;;2.30;;
24086;SDS011;22893;50.572;7.234;2023-03-01T07:32:57;4.22;;;2.52;;
24086;SDS011;22893;50.572;7.234;2023-03-01T07:35:25;4.33;;;2.25;;
24086;SDS011;22893;50.572;7.234;2023-03-01T07:37:53;6.55;;;2.90;;
24086;SDS011;22893;50.572;7.234;2023-03-01T07:40:20;6.85;;;2.65;;
24086;SDS011;22893;50.572;7.234;2023-03-01T07:42:48;5.67;;;2.58;;
24086;SDS011;22893;50.572;7.234;2023-03-01T07:45:16;5.55;;;2.40;;
24086;SDS011;22893;50.572;7.234;2023-03-01T07:47:43;4.17;;;2.55;;
24086;SDS011;22893;50.572;7.234;2023-03-01T07:50:11;4.42;;;2.70;;
24086;SDS011;22893;50.572;7.234;2023-03-01T07:52:39;6.50;;;2.80;;
24086;SDS011;22893;50.572;7.234;2023-03-01T07:55:07;4.00;;;2.77;;
24086;SDS011;22893;50.572;7.234;2023-03-01T07:57:34;4.53;;;2.37;;
24086;SDS011;22893;50.572;7.234;2023-03-01T08:00:02;5.25;;;3.37;;
24086;SDS011;22893;50.572;7.234;2023-03-01T08:02:30;4.72;;;3.27;;
24086;SDS011;22893;50.572;7.234;2023-03-01T08:04:58;4.40;;;2.47;;
24086;SDS011;22893;50.572;7.234;2023-03-01T08:07:25;4.80;;;1.92;;
24086;SDS011;22893;50.572;7.234;2023-03-01T08:09:53;6.55;;;2.85;;
24086;SDS011;22893;50.572;7.234;2023-03-01T08:12:20;4.03;;;2.52;;
24086;SDS011;22893;50.572;7.234;2023-03-01T08:14:48;3.30;;;2.30;;
24086;SDS011;22893;50.572;7.234;2023-03-01T08:17:16;3.50;;;2.42;;
24086;SDS011;22893;50.572;7.234;2023-03-01T08:19:43;9.63;;;3.08;;
24086;SDS011;22893;50.572;7.234;2023-03-01T08:22:11;4.08;;;2.55;;
24086;SDS011;22893;50.572;7.234;2023-03-01T08:24:39;5.22;;;2.70;;
24086;SDS011;22893;50.572;7.234;2023-03-01T08:27:06;5.33;;;3.02;;
24086;SDS011;22893;50.572;7.234;2023-03-01T08:29:34;5.12;;;2.35;;
24086;SDS011;22893;50.572;7.234;2023-03-01T08:32:02;6.25;;;2.42;;
24086;SDS011;22893;50.572;7.234;2023-03-01T08:34:30;4.47;;;2.45;;
24086;SDS011;22893;50.572;7.234;2023-03-01T08:36:57;6.65;;;2.45;;
24086;SDS011;22893;50.572;7.234;2023-03-01T08:39:25;4.37;;;2.55;;
24086;SDS011;22893;50.572;7.234;2023-03-01T08:41:52;6.67;;;2.40;;
24086;SDS011;22893;50.572;7.234;2023-03-01T08:44:20;5.72;;;2.45;;
24086;SDS011;22893;50.572;7.234;2023-03-01T08:46:48;3.95;;;2.40;;
24086;SDS011;22893;50.572;7.234;2023-03-01T08:49:19;3.60;;;2.55;;
24086;SDS011;22893;50.572;7.234;2023-03-01T08:51:47;6.90;;;2.72;;
24086;SDS011;22893;50.572;7.234;2023-03-01T08:54:16;5.53;;;2.77;;
24086;SDS011;22893;50.572;7.234;2023-03-01T08:56:45;4.47;;;2.30;;
24086;SDS011;22893;50.572;7.234;2023-03-01T08:59:14;5.47;;;2.37;;
24086;SDS011;22893;50.572;7.234;2023-03-01T09:01:43;4.83;;;2.65;;
24086;SDS011;22893;50.572;7.234;2023-03-01T09:04:11;6.55;;;2.40;;
24086;SDS011;22893;50.572;7.234;2023-03-01T09:06:40;3.80;;;2.05;;
24086;SDS011;22893;50.572;7.234;2023-03-01T09:09:11;3.77;;;2.37;;
24086;SDS011;22893;50.572;7.234;2023-03-01T09:11:44;3.98;;;2.50;;
24086;SDS011;22893;50.572;7.234;2023-03-01T09:14:15;3.75;;;2.52;;
24086;SDS011;22893;50.572;7.234;2023-03-01T09:16:42;3.25;;;2.27;;
24086;SDS011;22893;50.572;7.234;2023-03-01T09:19:10;3.62;;;2.15;;
24086;SDS011;22893;50.572;7.234;2023-03-01T09:21:39;3.75;;;1.87;;
24086;SDS011;22893;50.572;7.234;2023-03-01T09:24:11;4.50;;;2.20;;
24086;SDS011;22893;50.572;7.234;2023-03-01T09:26:40;4.22;;;2.20;;
24086;SDS011;22893;50.572;7.234;2023-03-01T09:29:08;5.33;;;2.67;;
24086;SDS011;22893;50.572;7.234;2023-03-01T09:31:35;5.42;;;2.30;;
24086;SDS011;22893;50.572;7.234;2023-03-01T09:34:03;3.52;;;1.87;;
24086;SDS011;22893;50.572;7.234;2023-03-01T09:36:31;5.47;;;2.20;;
24086;SDS011;22893;50.572;7.234;2023-03-01T09:38:59;5.10;;;2.22;;
24086;SDS011;22893;50.572;7.234;2023-03-01T09:46:57;4.42;;;2.45;;
24086;SDS011;22893;50.572;7.234;2023-03-01T09:49:26;4.28;;;2.00;;
24086;SDS011;22893;50.572;7.234;2023-03-01T09:51:58;4.15;;;2.50;;
24086;SDS011;22893;50.572;7.234;2023-03-01T09:54:27;5.15;;;2.30;;
24086;SDS011;22893;50.572;7.234;2023-03-01T10:02:26;3.42;;;2.05;;
24086;SDS011;22893;50.572;7.234;2023-03-01T10:05:05;5.30;;;2.50;;
24086;SDS011;22893;50.572;7.234;2023-03-01T10:10:51;2.60;;;2.10;;
24086;SDS011;22893;50.572;7.234;2023-03-01T10:12:57;5.78;;;2.20;;
24086;SDS011;22893;50.572;7.234;2023-03-01T10:15:33;3.33;;;1.92;;
24086;SDS011;22893;50.572;7.234;2023-03-01T10:18:04;4.53;;;1.82;;
24086;SDS011;22893;50.572;7.234;2023-03-01T10:20:36;3.92;;;2.42;;
24086;SDS011;22893;50.572;7.234;2023-03-01T10:23:09;4.60;;;2.60;;
24086;SDS011;22893;50.572;7.234;2023-03-01T10:25:48;3.95;;;1.87;;
24086;SDS011;22893;50.572;7.234;2023-03-01T10:28:25;4.15;;;2.37;;
24086;SDS011;22893;50.572;7.234;2023-03-01T10:30:57;4.17;;;1.95;;
24086;SDS011;22893;50.572;7.234;2023-03-01T10:35:59;3.25;;;2.37;;
24086;SDS011;22893;50.572;7.234;2023-03-01T10:38:28;4.30;;;1.92;;
24086;SDS011;22893;50.572;7.234;2023-03-01T10:40:59;4.20;;;2.30;;
24086;SDS011;22893;50.572;7.234;2023-03-01T10:43:45;3.25;;;1.90;;
24086;SDS011;22893;50.572;7.234;2023-03-01T10:46:25;2.87;;;1.98;;
24086;SDS011;22893;50.572;7.234;2023-03-01T10:51:43;3.27;;;2.08;;
24086;SDS011;22893;50.572;7.234;2023-03-01T10:54:16;4.83;;;2.22;;
24086;SDS011;22893;50.572;7.234;2023-03-01T10:56:49;3.55;;;2.05;;
24086;SDS011;22893;50.572;7.234;2023-03-01T10:59:27;5.95;;;2.72;;
24086;SDS011;22893;50.572;7.234;2023-03-01T11:05:01;3.02;;;1.72;;
24086;SDS011;22893;50.572;7.234;2023-03-01T11:07:25;5.00;;;2.15;;
24086;SDS011;22893;50.572;7.234;2023-03-01T11:09:53;3.80;;;2.27;;
24086;SDS011;22893;50.572;7.234;2023-03-01T11:12:21;3.98;;;1.65;;
24086;SDS011;22893;50.572;7.234;2023-03-01T11:14:53;2.92;;;1.80;;
24086;SDS011;22893;50.572;7.234;2023-03-01T11:17:31;5.65;;;2.00;;
24086;SDS011;22893;50.572;7.234;2023-03-01T11:22:44;3.20;;;1.95;;
24086;SDS011;22893;50.572;7.234;2023-03-01T11:25:17;4.60;;;1.82;;
24086;SDS011;22893;50.572;7.234;2023-03-01T11:27:46;2.15;;;1.52;;
24086;SDS011;22893;50.572;7.234;2023-03-01T11:30:27;4.33;;;2.10;;
24086;SDS011;22893;50.572;7.234;2023-03-01T11:35:37;4.03;;;1.95;;
24086;SDS011;22893;50.572;7.234;2023-03-01T11:43:32;2.35;;;1.25;;
24086;SDS011;22893;50.572;7.234;2023-03-01T11:51:38;2.60;;;1.55;;
24086;SDS011;22893;50.572;7.234;2023-03-01T11:57:13;2.45;;;1.52;;
24086;SDS011;22893;50.572;7.234;2023-03-01T12:08:32;3.80;;;1.85;;
24086;SDS011;22893;50.572;7.234;2023-03-01T12:13:53;4.37;;;2.55;;
24086;SDS011;22893;50.572;7.234;2023-03-01T12:22:09;6.62;;;2.15;;
24086;SDS011;22893;50.572;7.234;2023-03-01T12:39:00;4.22;;;2.42;;
24086;SDS011;22893;50.572;7.234;2023-03-01T12:44:35;5.90;;;2.45;;
24086;SDS011;22893;50.572;7.234;2023-03-01T12:51:24;4.70;;;2.15;;
24086;SDS011;22893;50.572;7.234;2023-03-01T12:53:57;4.85;;;2.35;;
24086;SDS011;22893;50.572;7.234;2023-03-01T12:55:50;6.72;;;2.67;;
24086;SDS011;22893;50.572;7.234;2023-03-01T13:03:38;5.30;;;2.40;;
24086;SDS011;22893;50.572;7.234;2023-03-01T13:06:25;5.58;;;2.45;;
24086;SDS011;22893;50.572;7.234;2023-03-01T13:09:18;5.22;;;2.30;;
24086;SDS011;22893;50.572;7.234;2023-03-01T13:11:42;4.47;;;2.58;;
24086;SDS011;22893;50.572;7.234;2023-03-01T13:16:53;6.58;;;2.37;;
24086;SDS011;22893;50.572;7.234;2023-03-01T13:19:22;8.60;;;2.80;;
24086;SDS011;22893;50.572;7.234;2023-03-01T13:22:24;7.47;;;2.60;;
24086;SDS011;22893;50.572;7.234;2023-03-01T13:24:48;8.10;;;3.00;;
24086;SDS011;22893;50.572;7.234;2023-03-01T13:27:21;6.37;;;2.17;;
24086;SDS011;22893;50.572;7.234;2023-03-01T13:29:54;5.47;;;2.37;;
24086;SDS011;22893;50.572;7.234;2023-03-01T13:32:26;7.95;;;1.82;;
24086;SDS011;22893;50.572;7.234;2023-03-01T13:35:01;3.87;;;1.95;;
24086;SDS011;22893;50.572;7.234;2023-03-01T13:37:31;5.45;;;2.10;;
24086;SDS011;22893;50.572;7.234;2023-03-01T13:40:05;6.58;;;2.12;;
24086;SDS011;22893;50.572;7.234;2023-03-01T13:42:36;3.27;;;1.95;;
24086;SDS011;22893;50.572;7.234;2023-03-01T13:45:12;7.37;;;2.37;;
24086;SDS011;22893;50.572;7.234;2023-03-01T13:47:41;3.83;;;1.77;;
24086;SDS011;22893;50.572;7.234;2023-03-01T13:50:37;4.22;;;1.42;;
24086;SDS011;22893;50.572;7.234;2023-03-01T13:52:50;4.87;;;1.92;;
24086;SDS011;22893;50.572;7.234;2023-03-01T13:57:56;4.17;;;1.95;;
24086;SDS011;22893;50.572;7.234;2023-03-01T14:00:30;3.50;;;1.90;;
24086;SDS011;22893;50.572;7.234;2023-03-01T14:03:21;5.62;;;2.05;;
24086;SDS011;22893;50.572;7.234;2023-03-01T14:05:33;6.90;;;2.02;;
24086;SDS011;22893;50.572;7.234;2023-03-01T14:08:03;3.62;;;1.87;;
24086;SDS011;22893;50.572;7.234;2023-03-01T14:10:34;3.08;;;1.62;;
24086;SDS011;22893;50.572;7.234;2023-03-01T14:13:20;3.92;;;1.60;;
24086;SDS011;22893;50.572;7.234;2023-03-01T14:16:10;4.28;;;2.05;;
24086;SDS011;22893;50.572;7.234;2023-03-01T14:18:33;4.00;;;1.77;;
24086;SDS011;22893;50.572;7.234;2023-03-01T14:21:00;8.68;;;2.27;;
24086;SDS011;22893;50.572;7.234;2023-03-01T14:23:29;3.90;;;2.08;;
24086;SDS011;22893;50.572;7.234;2023-03-01T14:26:00;3.98;;;2.15;;
24086;SDS011;22893;50.572;7.234;2023-03-01T14:28:30;3.55;;;2.42;;
24086;SDS011;22893;50.572;7.234;2023-03-01T14:31:00;2.62;;;1.92;;
24086;SDS011;22893;50.572;7.234;2023-03-01T14:33:29;4.05;;;2.00;;
24086;SDS011;22893;50.572;7.234;2023-03-01T14:36:10;3.98;;;2.12;;
24086;SDS011;22893;50.572;7.234;2023-03-01T14:38:45;5.20;;;2.20;;
24086;SDS011;22893;50.572;7.234;2023-03-01T14:41:13;4.53;;;1.85;;
24086;SDS011;22893;50.572;7.234;2023-03-01T14:43:44;3.42;;;1.80;;
24086;SDS011;22893;50.572;7.234;2023-03-01T14:46:24;3.37;;;1.90;;
24086;SDS011;22893;50.572;7.234;2023-03-01T14:48:57;3.27;;;1.95;;
24086;SDS011;22893;50.572;7.234;2023-03-01T14:51:30;4.22;;;2.02;;
24086;SDS011;22893;50.572;7.234;2023-03-01T14:53:59;7.55;;;2.33;;
24086;SDS011;22893;50.572;7.234;2023-03-01T14:56:27;4.58;;;1.77;;
24086;SDS011;22893;50.572;7.234;2023-03-01T14:58:57;3.83;;;2.42;;
24086;SDS011;22893;50.572;7.234;2023-03-01T15:01:25;4.65;;;1.98;;
24086;SDS011;22893;50.572;7.234;2023-03-01T15:03:55;5.10;;;2.15;;
24086;SDS011;22893;50.572;7.234;2023-03-01T15:06:23;3.85;;;1.75;;
24086;SDS011;22893;50.572;7.234;2023-03-01T15:08:52;3.05;;;1.75;;
24086;SDS011;22893;50.572;7.234;2023-03-01T15:11:29;2.92;;;1.72;;
24086;SDS011;22893;50.572;7.234;2023-03-01T15:13:59;4.60;;;1.50;;
24086;SDS011;22893;50.572;7.234;2023-03-01T15:16:30;7.40;;;2.27;;
24086;SDS011;22893;50.572;7.234;2023-03-01T15:19:01;3.77;;;1.50;;
24086;SDS011;22893;50.572;7.234;2023-03-01T15:21:34;5.15;;;1.50;;
24086;SDS011;22893;50.572;7.234;2023-03-01T15:24:23;5.80;;;1.60;;
24086;SDS011;22893;50.572;7.234;2023-03-01T15:26:50;5.85;;;2.22;;
24086;SDS011;22893;50.572;7.234;2023-03-01T15:29:28;4.03;;;1.72;;
24086;SDS011;22893;50.572;7.234;2023-03-01T15:32:00;9.85;;;1.82;;
24086;SDS011;22893;50.572;7.234;2023-03-01T15:34:35;5.53;;;2.33;;
24086;SDS011;22893;50.572;7.234;2023-03-01T15:37:05;4.35;;;1.40;;
24086;SDS011;22893;50.572;7.234;2023-03-01T15:39:41;7.78;;;1.75;;
24086;SDS011;22893;50.572;7.234;2023-03-01T15:44:42;1.77;;;1.02;;
24086;SDS011;22893;50.572;7.234;2023-03-01T17:21:22;2.25;;;1.12;;
24086;SDS011;22893;50.572;7.234;2023-03-01T17:23:49;5.20;;;1.12;;
24086;SDS011;22893;50.572;7.234;2023-03-01T17:26:18;5.30;;;1.30;;
24086;SDS011;22893;50.572;7.234;2023-03-01T17:28:46;2.50;;;1.17;;
24086;SDS011;22893;50.572;7.234;2023-03-01T17:31:18;4.15;;;1.45;;
24086;SDS011;22893;50.572;7.234;2023-03-01T17:33:46;3.72;;;1.50;;
24086;SDS011;22893;50.572;7.234;2023-03-01T17:36:15;4.10;;;1.10;;
24086;SDS011;22893;50.572;7.234;2023-03-01T17:38:42;1.52;;;0.90;;
24086;SDS011;22893;50.572;7.234;2023-03-01T17:41:11;4.15;;;1.27;;
24086;SDS011;22893;50.572;7.234;2023-03-01T17:43:40;3.52;;;1.30;;
24086;SDS011;22893;50.572;7.234;2023-03-01T17:46:08;1.50;;;0.90;;
24086;SDS011;22893;50.572;7.234;2023-03-01T17:48:36;4.10;;;1.50;;
24086;SDS011;22893;50.572;7.234;2023-03-01T17:51:05;9.28;;;1.57;;
24086;SDS011;22893;50.572;7.234;2023-03-01T17:53:34;3.40;;;1.10;;
24086;SDS011;22893;50.572;7.234;2023-03-01T17:56:03;5.15;;;1.22;;
24086;SDS011;22893;50.572;7.234;2023-03-01T17:58:33;3.70;;;1.42;;
24086;SDS011;22893;50.572;7.234;2023-03-01T18:01:07;4.90;;;1.67;;
24086;SDS011;22893;50.572;7.234;2023-03-01T18:03:39;3.77;;;1.10;;
24086;SDS011;22893;50.572;7.234;2023-03-01T18:06:14;2.72;;;1.60;;
24086;SDS011;22893;50.572;7.234;2023-03-01T18:08:41;2.80;;;1.10;;
24086;SDS011;22893;50.572;7.234;2023-03-01T18:11:10;5.00;;;1.37;;
24086;SDS011;22893;50.572;7.234;2023-03-01T18:13:39;4.15;;;1.42;;
24086;SDS011;22893;50.572;7.234;2023-03-01T18:16:07;4.78;;;1.47;;
24086;SDS011;22893;50.572;7.234;2023-03-01T18:18:37;4.10;;;1.15;;
24086;SDS011;22893;50.572;7.234;2023-03-01T18:21:07;6.40;;;1.80;;
24086;SDS011;22893;50.572;7.234;2023-03-01T18:23:35;4.33;;;1.17;;